Terminal Aerodrome Forecast
Issued by NWS

Home | Current Version | Previous Version | Graphics & Text | Print | Product List | Glossary On
Versions: 1 2 3 4 5 6 7 8 9 10 11 12 13 14 15 16 17 18 19 20
000
FTUS43 KGRB 241100
TAFCWA
TAF
KCWA 241132Z 2412/2512 11003KT P6SM SKC
     FM241500 14010KT P6SM SCT250
     FM242100 11007KT P6SM SCT100 BKN250
     FM250600 09007KT 3SM -SN SCT010 OVC025
     FM250900 10006KT 1 1/2SM -SN OVC005
      TEMPO 2509/2512 3/4SM -SN OVC003=

USA.gov is the U.S. government's official web portal to all federal, state and local government web resources and services.